DAL1347 KLIT-KATL
Flight info
| Callsign | DAL1347 |
|---|---|
| Flight time | 1h 10m |
| Altitude | 37000 |
| Route | MICKE MEMFS HUTCC KNSAW RUSSA GLAVN2 |
| Aircraft | B738/M-SDE2E3FGHIRWXY/LB1 |
Departure
| Time | 2026-05-04 22:59 |
|---|---|
| Airport | Bill & Hillary Clinton National Airport/Adams Field (KLIT) |
Arrival
| Time | 2026-05-05 00:09 |
|---|---|
| Airport | Hartsfield Jackson Atlanta International Airport (KATL) |
| Time | Latitude | Longitude | Altitude | Speed | Heading |
|---|---|---|---|---|---|
| 2026-05-04 22:26 | 34.73077 | -92.21890 | 266 ft | 0 kts | 254° |
| 2026-05-04 22:49 | 34.73078 | -92.21885 | 266 ft | 3 kts | 253° |
| 2026-05-04 22:49 | 34.73089 | -92.21856 | 266 ft | 4 kts | 227° |
| 2026-05-04 22:49 | 34.73109 | -92.21840 | 266 ft | 4 kts | 179° |
| 2026-05-04 22:50 | 34.73130 | -92.21850 | 266 ft | 4 kts | 122° |
| 2026-05-04 22:50 | 34.73141 | -92.21878 | 266 ft | 4 kts | 111° |
| 2026-05-04 22:50 | 34.73144 | -92.21887 | 266 ft | 0 kts | 113° |
| 2026-05-04 22:54 | 34.73143 | -92.21883 | 266 ft | 2 kts | 113° |
| 2026-05-04 22:54 | 34.73128 | -92.21842 | 266 ft | 9 kts | 114° |
| 2026-05-04 22:55 | 34.73091 | -92.21745 | 266 ft | 16 kts | 116° |
| 2026-05-04 22:55 | 34.73036 | -92.21598 | 266 ft | 22 kts | 114° |
| 2026-05-04 22:55 | 34.72971 | -92.21423 | 266 ft | 23 kts | 114° |
| 2026-05-04 22:55 | 34.72915 | -92.21273 | 266 ft | 13 kts | 114° |
| 2026-05-04 22:56 | 34.72892 | -92.21173 | 266 ft | 12 kts | 76° |
| 2026-05-04 22:56 | 34.72947 | -92.21092 | 266 ft | 14 kts | 46° |
| 2026-05-04 22:56 | 34.73025 | -92.20992 | 266 ft | 19 kts | 46° |
| 2026-05-04 22:56 | 34.73130 | -92.20859 | 266 ft | 24 kts | 46° |
| 2026-05-04 22:57 | 34.73248 | -92.20708 | 266 ft | 24 kts | 46° |
| 2026-05-04 22:57 | 34.73361 | -92.20564 | 266 ft | 23 kts | 47° |
| 2026-05-04 22:57 | 34.73458 | -92.20414 | 266 ft | 22 kts | 53° |
| 2026-05-04 22:57 | 34.73529 | -92.20300 | 266 ft | 15 kts | 52° |
| 2026-05-04 22:58 | 34.73542 | -92.20198 | 266 ft | 13 kts | 128° |
| 2026-05-04 22:58 | 34.73469 | -92.20170 | 267 ft | 13 kts | 223° |
| 2026-05-04 22:58 | 34.73394 | -92.20267 | 267 ft | 32 kts | 226° |
| 2026-05-04 22:58 | 34.73076 | -92.20672 | 267 ft | 99 kts | 226° |
| 2026-05-04 22:59 | 34.72468 | -92.21444 | 273 ft | 151 kts | 227° |
| 2026-05-04 22:59 | 34.71708 | -92.22397 | 826 ft | 156 kts | 229° |
| 2026-05-04 22:59 | 34.70858 | -92.23154 | 1652 ft | 144 kts | 193° |
| 2026-05-04 22:59 | 34.69861 | -92.22998 | 2344 ft | 151 kts | 161° |
| 2026-05-04 23:00 | 34.68827 | -92.22417 | 2676 ft | 177 kts | 160° |
| 2026-05-04 23:00 | 34.67621 | -92.21759 | 2889 ft | 202 kts | 160° |
| 2026-05-04 23:00 | 34.66263 | -92.21027 | 3095 ft | 223 kts | 160° |
| 2026-05-04 23:00 | 34.64808 | -92.20240 | 3440 ft | 238 kts | 159° |
| 2026-05-04 23:01 | 34.63277 | -92.19289 | 3827 ft | 256 kts | 145° |
| 2026-05-04 23:01 | 34.62149 | -92.17555 | 4544 ft | 270 kts | 119° |
| 2026-05-04 23:01 | 34.61686 | -92.15320 | 5299 ft | 281 kts | 97° |
| 2026-05-04 23:01 | 34.61661 | -92.12895 | 5909 ft | 292 kts | 91° |
| 2026-05-04 23:02 | 34.61722 | -92.10400 | 6596 ft | 299 kts | 89° |
| 2026-05-04 23:02 | 34.61805 | -92.07860 | 7320 ft | 303 kts | 88° |
| 2026-05-04 23:02 | 34.61888 | -92.05290 | 8122 ft | 306 kts | 88° |
| 2026-05-04 23:02 | 34.61965 | -92.02685 | 8907 ft | 311 kts | 88° |
| 2026-05-04 23:03 | 34.62037 | -92.00041 | 9696 ft | 315 kts | 88° |
| 2026-05-04 23:03 | 34.62083 | -91.98272 | 10208 ft | 318 kts | 88° |
| 2026-05-04 23:03 | 34.62150 | -91.95517 | 10560 ft | 339 kts | 88° |
| 2026-05-04 23:03 | 34.62218 | -91.92560 | 10799 ft | 360 kts | 88° |
| 2026-05-04 23:04 | 34.62286 | -91.89477 | 11412 ft | 367 kts | 88° |
| 2026-05-04 23:04 | 34.62351 | -91.86376 | 12230 ft | 369 kts | 88° |
| 2026-05-04 23:04 | 34.62415 | -91.83230 | 12935 ft | 376 kts | 87° |
| 2026-05-04 23:04 | 34.62479 | -91.80037 | 13654 ft | 381 kts | 87° |
| 2026-05-04 23:05 | 34.62542 | -91.76800 | 14369 ft | 385 kts | 86° |
| 2026-05-04 23:05 | 34.62605 | -91.73534 | 15106 ft | 389 kts | 86° |
| 2026-05-04 23:05 | 34.62667 | -91.70240 | 15866 ft | 392 kts | 86° |
| 2026-05-04 23:05 | 34.62729 | -91.66908 | 16600 ft | 396 kts | 86° |
| 2026-05-04 23:06 | 34.62791 | -91.63549 | 17324 ft | 401 kts | 86° |
| 2026-05-04 23:06 | 34.62852 | -91.60141 | 18044 ft | 405 kts | 86° |
| 2026-05-04 23:06 | 34.62913 | -91.56704 | 18677 ft | 410 kts | 86° |
| 2026-05-04 23:06 | 34.62974 | -91.53230 | 19289 ft | 414 kts | 86° |
| 2026-05-04 23:07 | 34.63035 | -91.49717 | 19914 ft | 418 kts | 86° |
| 2026-05-04 23:07 | 34.63095 | -91.46171 | 20516 ft | 423 kts | 86° |
| 2026-05-04 23:07 | 34.63154 | -91.42582 | 21103 ft | 427 kts | 86° |
| 2026-05-04 23:07 | 34.63214 | -91.38954 | 21670 ft | 432 kts | 86° |
| 2026-05-04 23:08 | 34.63272 | -91.35290 | 22236 ft | 436 kts | 86° |
| 2026-05-04 23:08 | 34.63330 | -91.31591 | 22802 ft | 441 kts | 86° |
| 2026-05-04 23:08 | 34.63388 | -91.27857 | 23356 ft | 445 kts | 86° |
| 2026-05-04 23:08 | 34.63445 | -91.24080 | 23824 ft | 449 kts | 86° |
| 2026-05-04 23:09 | 34.63501 | -91.20267 | 24252 ft | 454 kts | 86° |
| 2026-05-04 23:09 | 34.63557 | -91.16411 | 24666 ft | 459 kts | 85° |
| 2026-05-04 23:09 | 34.63613 | -91.12523 | 25102 ft | 463 kts | 85° |
| 2026-05-04 23:09 | 34.63663 | -91.08854 | 25543 ft | 466 kts | 85° |
| 2026-05-04 23:10 | 34.63717 | -91.04902 | 25947 ft | 470 kts | 85° |
| 2026-05-04 23:10 | 34.63768 | -91.01080 | 26299 ft | 475 kts | 85° |
| 2026-05-04 23:10 | 34.63818 | -90.97173 | 26676 ft | 480 kts | 85° |
| 2026-05-04 23:10 | 34.63869 | -90.93134 | 27066 ft | 484 kts | 85° |
| 2026-05-04 23:11 | 34.63920 | -90.89040 | 27455 ft | 488 kts | 84° |
| 2026-05-04 23:11 | 34.63969 | -90.84922 | 27826 ft | 492 kts | 84° |
| 2026-05-04 23:11 | 34.64017 | -90.80761 | 28187 ft | 496 kts | 84° |
| 2026-05-04 23:11 | 34.64063 | -90.76645 | 28533 ft | 500 kts | 84° |
| 2026-05-04 23:12 | 34.64109 | -90.72410 | 28949 ft | 503 kts | 84° |
| 2026-05-04 23:12 | 34.64153 | -90.68163 | 29340 ft | 505 kts | 84° |
| 2026-05-04 23:12 | 34.64197 | -90.63878 | 29692 ft | 509 kts | 84° |
| 2026-05-04 23:12 | 34.64239 | -90.59591 | 30000 ft | 513 kts | 84° |
| 2026-05-04 23:13 | 34.64281 | -90.55236 | 30259 ft | 517 kts | 84° |
| 2026-05-04 23:13 | 34.64322 | -90.50852 | 30495 ft | 521 kts | 83° |
| 2026-05-04 23:13 | 34.64361 | -90.46427 | 30726 ft | 526 kts | 83° |
| 2026-05-04 23:13 | 34.64399 | -90.41974 | 30967 ft | 529 kts | 83° |
| 2026-05-04 23:14 | 34.64435 | -90.37491 | 31221 ft | 533 kts | 83° |
| 2026-05-04 23:14 | 34.64466 | -90.33017 | 31798 ft | 527 kts | 83° |
| 2026-05-04 23:14 | 34.64495 | -90.28568 | 32152 ft | 528 kts | 83° |
| 2026-05-04 23:14 | 34.64527 | -90.24126 | 32290 ft | 534 kts | 82° |
| 2026-05-04 23:15 | 34.64558 | -90.19789 | 32479 ft | 538 kts | 82° |
| 2026-05-04 23:15 | 34.64587 | -90.15288 | 32822 ft | 538 kts | 82° |
| 2026-05-04 23:15 | 34.64613 | -90.10745 | 33199 ft | 538 kts | 82° |
| 2026-05-04 23:15 | 34.64635 | -90.06439 | 33488 ft | 539 kts | 82° |
| 2026-05-04 23:16 | 34.64654 | -90.02863 | 33671 ft | 542 kts | 82° |
| 2026-05-04 23:16 | 34.64675 | -89.98779 | 33919 ft | 543 kts | 82° |
| 2026-05-04 23:16 | 34.64688 | -89.95160 | 34505 ft | 533 kts | 82° |
| 2026-05-04 23:16 | 34.64697 | -89.91839 | 34945 ft | 528 kts | 81° |
| 2026-05-04 23:17 | 34.64705 | -89.88537 | 35313 ft | 524 kts | 81° |
| 2026-05-04 23:17 | 34.64715 | -89.85273 | 35635 ft | 522 kts | 81° |
| 2026-05-04 23:17 | 34.64727 | -89.81967 | 35858 ft | 522 kts | 81° |
| 2026-05-04 23:17 | 34.64740 | -89.78676 | 36020 ft | 524 kts | 80° |
| 2026-05-04 23:18 | 34.64770 | -89.71909 | 36154 ft | 532 kts | 81° |
| 2026-05-04 23:18 | 34.64794 | -89.65221 | 36366 ft | 537 kts | 81° |
| 2026-05-04 23:19 | 34.64800 | -89.61881 | 36587 ft | 537 kts | 81° |
| 2026-05-04 23:19 | 34.64803 | -89.58527 | 36840 ft | 536 kts | 80° |
| 2026-05-04 23:19 | 34.64809 | -89.51763 | 36906 ft | 541 kts | 80° |
| 2026-05-04 23:20 | 34.64810 | -89.44993 | 36918 ft | 540 kts | 81° |
| 2026-05-04 23:20 | 34.64803 | -89.37995 | 36916 ft | 533 kts | 80° |
| 2026-05-04 23:21 | 34.64797 | -89.31275 | 36932 ft | 533 kts | 80° |
| 2026-05-04 23:21 | 34.64793 | -89.24586 | 36932 ft | 535 kts | 80° |
| 2026-05-04 23:22 | 34.64787 | -89.17917 | 36933 ft | 536 kts | 82° |
| 2026-05-04 23:22 | 34.64755 | -89.11142 | 36925 ft | 536 kts | 81° |
| 2026-05-04 23:23 | 34.64741 | -89.04471 | 36926 ft | 535 kts | 81° |
| 2026-05-04 23:23 | 34.64724 | -88.97582 | 36932 ft | 534 kts | 82° |
| 2026-05-04 23:24 | 34.64702 | -88.90911 | 36932 ft | 533 kts | 82° |
| 2026-05-04 23:24 | 34.64674 | -88.84224 | 36962 ft | 532 kts | 82° |
| 2026-05-04 23:25 | 34.64623 | -88.77585 | 36934 ft | 530 kts | 81° |
| 2026-05-04 23:25 | 34.64674 | -88.70881 | 36934 ft | 527 kts | 82° |
| 2026-05-04 23:26 | 34.64640 | -88.64215 | 36928 ft | 527 kts | 83° |
| 2026-05-04 23:26 | 34.64536 | -88.55819 | 36937 ft | 525 kts | 83° |
| 2026-05-04 23:27 | 34.64445 | -88.47408 | 36939 ft | 523 kts | 83° |
| 2026-05-04 23:27 | 34.64376 | -88.39423 | 36947 ft | 522 kts | 83° |
| 2026-05-04 23:28 | 34.64310 | -88.31369 | 36943 ft | 521 kts | 83° |
| 2026-05-04 23:28 | 34.64233 | -88.22875 | 36946 ft | 521 kts | 83° |
| 2026-05-04 23:29 | 34.64146 | -88.14080 | 36937 ft | 521 kts | 83° |
| 2026-05-04 23:29 | 34.64053 | -88.05418 | 36966 ft | 522 kts | 83° |
| 2026-05-04 23:30 | 34.63952 | -87.96600 | 36953 ft | 522 kts | 84° |
| 2026-05-04 23:30 | 34.63845 | -87.87781 | 36941 ft | 522 kts | 84° |
| 2026-05-04 23:31 | 34.63731 | -87.78967 | 36944 ft | 522 kts | 84° |
| 2026-05-04 23:31 | 34.63610 | -87.70154 | 36975 ft | 521 kts | 84° |
| 2026-05-04 23:32 | 34.63485 | -87.61356 | 36956 ft | 521 kts | 84° |
| 2026-05-04 23:32 | 34.63353 | -87.52558 | 36945 ft | 521 kts | 84° |
| 2026-05-04 23:33 | 34.63187 | -87.43777 | 36947 ft | 522 kts | 88° |
| 2026-05-04 23:33 | 34.62730 | -87.39369 | 36651 ft | 532 kts | 97° |
| 2026-05-04 23:33 | 34.61930 | -87.34977 | 36143 ft | 531 kts | 99° |
| 2026-05-04 23:34 | 34.61053 | -87.30625 | 35582 ft | 530 kts | 101° |
| 2026-05-04 23:34 | 34.60184 | -87.26285 | 34964 ft | 529 kts | 101° |
| 2026-05-04 23:34 | 34.59309 | -87.21946 | 34337 ft | 526 kts | 100° |
| 2026-05-04 23:34 | 34.58512 | -87.17651 | 33629 ft | 517 kts | 100° |
| 2026-05-04 23:35 | 34.57747 | -87.13430 | 33032 ft | 505 kts | 101° |
| 2026-05-04 23:35 | 34.56999 | -87.09359 | 32924 ft | 488 kts | 100° |
| 2026-05-04 23:35 | 34.56301 | -87.05351 | 32539 ft | 482 kts | 99° |
| 2026-05-04 23:35 | 34.55639 | -87.01351 | 32228 ft | 487 kts | 99° |
| 2026-05-04 23:36 | 34.54967 | -86.97301 | 31894 ft | 492 kts | 100° |
| 2026-05-04 23:36 | 34.54276 | -86.93244 | 31571 ft | 488 kts | 102° |
| 2026-05-04 23:36 | 34.53403 | -86.89306 | 31224 ft | 479 kts | 107° |
| 2026-05-04 23:36 | 34.52380 | -86.85514 | 30900 ft | 469 kts | 109° |
| 2026-05-04 23:37 | 34.51333 | -86.81803 | 30574 ft | 461 kts | 109° |
| 2026-05-04 23:37 | 34.50323 | -86.78135 | 30275 ft | 457 kts | 109° |
| 2026-05-04 23:37 | 34.49357 | -86.74488 | 29955 ft | 453 kts | 108° |
| 2026-05-04 23:37 | 34.48414 | -86.70862 | 29601 ft | 449 kts | 108° |
| 2026-05-04 23:38 | 34.47476 | -86.67241 | 29289 ft | 452 kts | 108° |
| 2026-05-04 23:38 | 34.46525 | -86.63598 | 28975 ft | 454 kts | 108° |
| 2026-05-04 23:38 | 34.45572 | -86.59962 | 28645 ft | 451 kts | 108° |
| 2026-05-04 23:38 | 34.44627 | -86.56359 | 28354 ft | 447 kts | 108° |
| 2026-05-04 23:39 | 34.43687 | -86.52782 | 28048 ft | 444 kts | 108° |
| 2026-05-04 23:39 | 34.42755 | -86.49238 | 27756 ft | 441 kts | 108° |
| 2026-05-04 23:39 | 34.41826 | -86.45710 | 27451 ft | 438 kts | 108° |
| 2026-05-04 23:39 | 34.40901 | -86.42202 | 27154 ft | 436 kts | 108° |
| 2026-05-04 23:40 | 34.39978 | -86.38704 | 26870 ft | 436 kts | 108° |
| 2026-05-04 23:40 | 34.39057 | -86.35219 | 26580 ft | 435 kts | 108° |
| 2026-05-04 23:40 | 34.38135 | -86.31733 | 26286 ft | 435 kts | 108° |
| 2026-05-04 23:40 | 34.37212 | -86.28250 | 25997 ft | 434 kts | 108° |
| 2026-05-04 23:41 | 34.36292 | -86.24779 | 25678 ft | 433 kts | 108° |
| 2026-05-04 23:41 | 34.35371 | -86.21310 | 25386 ft | 432 kts | 108° |
| 2026-05-04 23:41 | 34.34452 | -86.17851 | 25102 ft | 431 kts | 108° |
| 2026-05-04 23:41 | 34.33535 | -86.14404 | 24801 ft | 430 kts | 108° |
| 2026-05-04 23:42 | 34.32634 | -86.10965 | 24510 ft | 428 kts | 108° |
| 2026-05-04 23:42 | 34.31746 | -86.07535 | 24220 ft | 426 kts | 108° |
| 2026-05-04 23:42 | 34.30867 | -86.04128 | 23933 ft | 424 kts | 108° |
| 2026-05-04 23:42 | 34.29991 | -86.00734 | 23651 ft | 422 kts | 108° |
| 2026-05-04 23:43 | 34.29118 | -85.97359 | 23314 ft | 420 kts | 108° |
| 2026-05-04 23:43 | 34.28246 | -85.94001 | 22999 ft | 417 kts | 108° |
| 2026-05-04 23:43 | 34.27380 | -85.90669 | 22698 ft | 414 kts | 108° |
| 2026-05-04 23:43 | 34.26519 | -85.87365 | 22412 ft | 411 kts | 108° |
| 2026-05-04 23:44 | 34.25951 | -85.85187 | 22225 ft | 409 kts | 108° |
| 2026-05-04 23:44 | 34.25099 | -85.81924 | 21947 ft | 406 kts | 108° |
| 2026-05-04 23:44 | 34.24249 | -85.78675 | 21663 ft | 404 kts | 108° |
| 2026-05-04 23:44 | 34.23403 | -85.75445 | 21331 ft | 402 kts | 108° |
| 2026-05-04 23:45 | 34.22559 | -85.72222 | 20809 ft | 403 kts | 109° |
| 2026-05-04 23:45 | 34.21713 | -85.68999 | 20278 ft | 402 kts | 109° |
| 2026-05-04 23:45 | 34.20868 | -85.65783 | 19803 ft | 401 kts | 109° |
| 2026-05-04 23:45 | 34.20028 | -85.62590 | 19399 ft | 397 kts | 109° |
| 2026-05-04 23:46 | 34.19196 | -85.59431 | 19059 ft | 392 kts | 109° |
| 2026-05-04 23:46 | 34.18374 | -85.56311 | 18769 ft | 388 kts | 109° |
| 2026-05-04 23:46 | 34.17556 | -85.53214 | 18481 ft | 385 kts | 109° |
| 2026-05-04 23:46 | 34.16746 | -85.50147 | 18186 ft | 383 kts | 110° |
| 2026-05-04 23:47 | 34.15933 | -85.47075 | 17862 ft | 386 kts | 110° |
| 2026-05-04 23:47 | 34.15114 | -85.43984 | 17568 ft | 386 kts | 110° |
| 2026-05-04 23:47 | 34.14297 | -85.40904 | 17276 ft | 383 kts | 110° |
| 2026-05-04 23:47 | 34.13494 | -85.37854 | 16981 ft | 379 kts | 109° |
| 2026-05-04 23:48 | 34.12709 | -85.34830 | 16692 ft | 376 kts | 109° |
| 2026-05-04 23:48 | 34.11935 | -85.31830 | 16418 ft | 373 kts | 109° |
| 2026-05-04 23:48 | 34.11165 | -85.28850 | 16157 ft | 371 kts | 109° |
| 2026-05-04 23:48 | 34.10398 | -85.25887 | 15892 ft | 369 kts | 109° |
| 2026-05-04 23:49 | 34.09633 | -85.22936 | 15622 ft | 368 kts | 109° |
| 2026-05-04 23:49 | 34.08869 | -85.19998 | 15354 ft | 367 kts | 109° |
| 2026-05-04 23:49 | 34.08105 | -85.17063 | 15106 ft | 366 kts | 109° |
| 2026-05-04 23:49 | 34.07342 | -85.14131 | 14819 ft | 366 kts | 109° |
| 2026-05-04 23:50 | 34.06578 | -85.11202 | 14552 ft | 365 kts | 109° |
| 2026-05-04 23:50 | 34.05816 | -85.08283 | 14280 ft | 364 kts | 109° |
| 2026-05-04 23:50 | 34.04891 | -85.05463 | 13990 ft | 360 kts | 124° |
| 2026-05-04 23:50 | 34.03280 | -85.03206 | 13803 ft | 352 kts | 140° |
| 2026-05-04 23:51 | 34.01438 | -85.01284 | 13572 ft | 349 kts | 142° |
| 2026-05-04 23:51 | 33.99580 | -84.99419 | 13346 ft | 347 kts | 142° |
| 2026-05-04 23:51 | 33.97735 | -84.97559 | 13135 ft | 345 kts | 142° |
| 2026-05-04 23:51 | 33.95910 | -84.95689 | 12920 ft | 344 kts | 142° |
| 2026-05-04 23:52 | 33.94093 | -84.93810 | 12711 ft | 344 kts | 142° |
| 2026-05-04 23:52 | 33.92284 | -84.91935 | 12506 ft | 343 kts | 141° |
| 2026-05-04 23:52 | 33.90474 | -84.90059 | 12303 ft | 343 kts | 142° |
| 2026-05-04 23:52 | 33.88677 | -84.88200 | 12098 ft | 343 kts | 142° |
| 2026-05-04 23:53 | 33.86866 | -84.86327 | 11892 ft | 343 kts | 142° |
| 2026-05-04 23:53 | 33.85057 | -84.84456 | 11686 ft | 343 kts | 142° |
| 2026-05-04 23:53 | 33.83249 | -84.82588 | 11475 ft | 343 kts | 142° |
| 2026-05-04 23:53 | 33.81443 | -84.80721 | 11269 ft | 342 kts | 141° |
| 2026-05-04 23:54 | 33.79643 | -84.78862 | 11066 ft | 340 kts | 142° |
| 2026-05-04 23:54 | 33.77852 | -84.77014 | 10862 ft | 338 kts | 142° |
| 2026-05-04 23:54 | 33.76079 | -84.75186 | 10653 ft | 331 kts | 142° |
| 2026-05-04 23:54 | 33.74427 | -84.73313 | 10437 ft | 326 kts | 130° |
| 2026-05-04 23:55 | 33.73436 | -84.70907 | 10235 ft | 318 kts | 107° |
| 2026-05-04 23:55 | 33.73203 | -84.68316 | 10071 ft | 307 kts | 91° |
| 2026-05-04 23:55 | 33.73263 | -84.63339 | 9701 ft | 292 kts | 91° |
| 2026-05-04 23:56 | 33.73282 | -84.60926 | 9521 ft | 287 kts | 91° |
| 2026-05-04 23:56 | 33.73292 | -84.58537 | 9354 ft | 285 kts | 91° |
| 2026-05-04 23:56 | 33.73296 | -84.56156 | 9185 ft | 285 kts | 92° |
| 2026-05-04 23:56 | 33.73297 | -84.53772 | 9015 ft | 285 kts | 92° |
| 2026-05-04 23:57 | 33.73298 | -84.51390 | 8845 ft | 285 kts | 92° |
| 2026-05-04 23:57 | 33.73298 | -84.49010 | 8677 ft | 285 kts | 92° |
| 2026-05-04 23:57 | 33.73297 | -84.46626 | 8502 ft | 285 kts | 92° |
| 2026-05-04 23:57 | 33.73296 | -84.44251 | 8333 ft | 285 kts | 92° |
| 2026-05-04 23:58 | 33.73295 | -84.41874 | 8164 ft | 284 kts | 92° |
| 2026-05-04 23:58 | 33.73296 | -84.39498 | 7992 ft | 284 kts | 92° |
| 2026-05-04 23:58 | 33.73296 | -84.37130 | 7804 ft | 283 kts | 92° |
| 2026-05-04 23:58 | 33.73296 | -84.34771 | 7642 ft | 282 kts | 92° |
| 2026-05-04 23:59 | 33.73295 | -84.32415 | 7467 ft | 281 kts | 92° |
| 2026-05-04 23:59 | 33.73294 | -84.30081 | 7304 ft | 279 kts | 92° |
| 2026-05-04 23:59 | 33.73297 | -84.27754 | 7133 ft | 278 kts | 92° |
| 2026-05-04 23:59 | 33.73300 | -84.25459 | 6962 ft | 271 kts | 92° |
| 2026-05-05 00:00 | 33.73303 | -84.23235 | 6784 ft | 261 kts | 92° |
| 2026-05-05 00:00 | 33.73305 | -84.22534 | 6733 ft | 258 kts | 92° |
| 2026-05-05 00:00 | 33.73312 | -84.19037 | 6484 ft | 242 kts | 92° |
| 2026-05-05 00:00 | 33.73320 | -84.17141 | 6339 ft | 236 kts | 92° |
| 2026-05-05 00:01 | 33.73334 | -84.15194 | 6209 ft | 230 kts | 92° |
| 2026-05-05 00:01 | 33.73349 | -84.13290 | 6055 ft | 226 kts | 92° |
| 2026-05-05 00:01 | 33.73364 | -84.11410 | 5840 ft | 225 kts | 92° |
| 2026-05-05 00:01 | 33.73353 | -84.09542 | 5618 ft | 222 kts | 100° |
| 2026-05-05 00:02 | 33.72788 | -84.07935 | 5531 ft | 201 kts | 136° |
| 2026-05-05 00:02 | 33.71650 | -84.07136 | 5339 ft | 188 kts | 173° |
| 2026-05-05 00:02 | 33.70362 | -84.07157 | 5081 ft | 185 kts | 186° |
| 2026-05-05 00:02 | 33.69109 | -84.07468 | 4790 ft | 185 kts | 207° |
| 2026-05-05 00:03 | 33.68127 | -84.08427 | 4519 ft | 185 kts | 223° |
| 2026-05-05 00:03 | 33.67226 | -84.09534 | 4241 ft | 185 kts | 224° |
| 2026-05-05 00:03 | 33.66335 | -84.10642 | 4055 ft | 186 kts | 224° |
| 2026-05-05 00:03 | 33.65449 | -84.11748 | 4021 ft | 189 kts | 224° |
| 2026-05-05 00:04 | 33.64724 | -84.13033 | 3964 ft | 191 kts | 255° |
| 2026-05-05 00:04 | 33.64738 | -84.14593 | 4015 ft | 190 kts | 269° |
| 2026-05-05 00:04 | 33.64739 | -84.16180 | 4013 ft | 189 kts | 266° |
| 2026-05-05 00:04 | 33.64722 | -84.17712 | 3979 ft | 178 kts | 265° |
| 2026-05-05 00:05 | 33.64714 | -84.19161 | 3986 ft | 171 kts | 266° |
| 2026-05-05 00:05 | 33.64708 | -84.20570 | 4008 ft | 172 kts | 265° |
| 2026-05-05 00:05 | 33.64704 | -84.22034 | 3945 ft | 174 kts | 265° |
| 2026-05-05 00:05 | 33.64700 | -84.23500 | 3750 ft | 177 kts | 266° |
| 2026-05-05 00:06 | 33.64698 | -84.24963 | 3516 ft | 174 kts | 265° |
| 2026-05-05 00:06 | 33.64695 | -84.26404 | 3294 ft | 171 kts | 265° |
| 2026-05-05 00:06 | 33.64693 | -84.27822 | 3061 ft | 169 kts | 266° |
| 2026-05-05 00:06 | 33.64691 | -84.29206 | 2854 ft | 162 kts | 266° |
| 2026-05-05 00:07 | 33.64690 | -84.30513 | 2649 ft | 153 kts | 265° |
| 2026-05-05 00:07 | 33.64688 | -84.31782 | 2494 ft | 151 kts | 265° |
| 2026-05-05 00:07 | 33.64685 | -84.33066 | 2262 ft | 154 kts | 265° |
| 2026-05-05 00:07 | 33.64685 | -84.34352 | 2055 ft | 153 kts | 265° |
| 2026-05-05 00:08 | 33.64684 | -84.35616 | 1849 ft | 149 kts | 265° |
| 2026-05-05 00:08 | 33.64681 | -84.36838 | 1642 ft | 145 kts | 266° |
| 2026-05-05 00:08 | 33.64681 | -84.38042 | 1400 ft | 144 kts | 267° |
| 2026-05-05 00:08 | 33.64694 | -84.39251 | 1257 ft | 145 kts | 266° |
| 2026-05-05 00:09 | 33.64692 | -84.40464 | 1092 ft | 145 kts | 265° |
| 2026-05-05 00:09 | 33.64678 | -84.41629 | 1006 ft | 127 kts | 271° |
| 2026-05-05 00:09 | 33.64679 | -84.42508 | 1004 ft | 83 kts | 270° |
| 2026-05-05 00:09 | 33.64680 | -84.42916 | 1007 ft | 32 kts | 269° |
| 2026-05-05 00:10 | 33.64667 | -84.43129 | 1007 ft | 18 kts | 248° |
| 2026-05-05 00:10 | 33.64614 | -84.43239 | 1007 ft | 11 kts | 232° |
| 2026-05-05 00:10 | 33.64550 | -84.43235 | 1006 ft | 11 kts | 129° |
| 2026-05-05 00:10 | 33.64541 | -84.43152 | 1006 ft | 10 kts | 96° |
| 2026-05-05 00:11 | 33.64493 | -84.43099 | 1006 ft | 10 kts | 173° |
| 2026-05-05 00:11 | 33.64458 | -84.43043 | 1006 ft | 10 kts | 89° |
| 2026-05-05 00:11 | 33.64460 | -84.42944 | 1005 ft | 15 kts | 90° |
| 2026-05-05 00:11 | 33.64451 | -84.42827 | 1005 ft | 12 kts | 125° |
| 2026-05-05 00:12 | 33.64372 | -84.42806 | 1005 ft | 12 kts | 180° |
| 2026-05-05 00:12 | 33.64290 | -84.42807 | 1005 ft | 11 kts | 180° |
| 2026-05-05 00:12 | 33.64214 | -84.42807 | 1005 ft | 7 kts | 180° |
| 2026-05-05 00:12 | 33.64173 | -84.42806 | 1005 ft | 4 kts | 180° |
| 2026-05-05 00:13 | 33.64150 | -84.42813 | 1005 ft | 4 kts | 216° |
| 2026-05-05 00:13 | 33.64146 | -84.42841 | 1005 ft | 3 kts | 273° |
| 2026-05-05 00:13 | 33.64150 | -84.42870 | 1005 ft | 3 kts | 282° |
| 2026-05-05 00:13 | 33.64152 | -84.42880 | 1005 ft | 0 kts | 283° |